KTEX

Telluride Regional Airport

Telluride, Colorado, USA
KTEX 141720Z 1418/1518 14007KT P6SM SKC FM142100 26005KT P6SM SKC FM150900 13006KT P6SM BKN200
Issued Valid From Valid To
Dec-14 @ 17:20 UTC
(5 hours ago)
Dec-14 @ 18:00 UTC
(4 hours ago)
Dec-15 @ 18:00 UTC
(in 20 hours)
Expired Click to View Dec-14 @ 18:00 to Dec-14 @ 21:00
KTEX 141720Z 1418/1518 14007KT P6SM SKC
Wind Visibility Clouds
140° at 7 knots Greater than 6 miles
  • Clear skies
From Dec-14 @ 21:00 to Dec-15 @ 09:00
FM142100 26005KT P6SM SKC
Wind Visibility Clouds
260° at 5 knots Greater than 6 miles
  • Clear skies
From Dec-15 @ 09:00 to Dec-15 @ 18:00
FM150900 13006KT P6SM BKN200
Wind Visibility Clouds
130° at 6 knots Greater than 6 miles
  • Broken at 20,000' AGL
KTEX 141720Z 1418/1518 14007KT P6SM SKC FM142100 26005KT P6SM SKC FM150900 13006KT P6SM BKN200
Issued Dec-14 @ 17:20 UTC
(5 hours ago)
Valid From Dec-14 @ 18:00 UTC
(4 hours ago)
Valid To Dec-15 @ 18:00 UTC
(in 20 hours)
Dec-14 @ 18:00 - Dec-14 @ 21:00
Wind Visibility
140° at 7 knots Greater than 6 miles
Clouds
  • Clear skies
From Dec-14 @ 21:00 - Dec-15 @ 09:00
Wind Visibility
260° at 5 knots Greater than 6 miles
Clouds
  • Clear skies
From Dec-15 @ 09:00 - Dec-15 @ 18:00
Wind Visibility
130° at 6 knots Greater than 6 miles
Clouds
  • Broken at 20,000' AGL